sensor_id;sensor_type;location;lat;lon;timestamp;P1;durP1;ratioP1;P2;durP2;ratioP2
9508;SDS011;4792;50.088;8.122;2023-04-08T00:01:23;19.33;;;13.17;;
9508;SDS011;4792;50.088;8.122;2023-04-08T00:03:51;19.73;;;12.83;;
9508;SDS011;4792;50.088;8.122;2023-04-08T00:06:19;19.70;;;13.17;;
9508;SDS011;4792;50.088;8.122;2023-04-08T00:08:47;19.60;;;12.97;;
9508;SDS011;4792;50.088;8.122;2023-04-08T00:11:16;19.07;;;12.37;;
9508;SDS011;4792;50.088;8.122;2023-04-08T00:13:44;19.83;;;12.50;;
9508;SDS011;4792;50.088;8.122;2023-04-08T00:16:12;19.50;;;12.53;;
9508;SDS011;4792;50.088;8.122;2023-04-08T00:18:40;19.30;;;12.80;;
9508;SDS011;4792;50.088;8.122;2023-04-08T00:21:08;17.63;;;12.00;;
9508;SDS011;4792;50.088;8.122;2023-04-08T00:23:36;20.07;;;13.77;;
9508;SDS011;4792;50.088;8.122;2023-04-08T00:26:04;18.40;;;12.13;;
9508;SDS011;4792;50.088;8.122;2023-04-08T00:28:33;20.53;;;13.73;;
9508;SDS011;4792;50.088;8.122;2023-04-08T00:31:00;21.13;;;13.30;;
9508;SDS011;4792;50.088;8.122;2023-04-08T00:33:28;18.80;;;12.33;;
9508;SDS011;4792;50.088;8.122;2023-04-08T00:35:56;18.73;;;12.67;;
9508;SDS011;4792;50.088;8.122;2023-04-08T00:38:24;19.17;;;12.93;;
9508;SDS011;4792;50.088;8.122;2023-04-08T00:40:52;20.73;;;13.50;;
9508;SDS011;4792;50.088;8.122;2023-04-08T00:43:20;20.87;;;13.73;;
9508;SDS011;4792;50.088;8.122;2023-04-08T00:45:49;20.93;;;13.23;;
9508;SDS011;4792;50.088;8.122;2023-04-08T00:48:17;21.00;;;13.50;;
9508;SDS011;4792;50.088;8.122;2023-04-08T00:50:44;19.40;;;12.73;;
9508;SDS011;4792;50.088;8.122;2023-04-08T00:53:13;19.80;;;12.57;;
9508;SDS011;4792;50.088;8.122;2023-04-08T00:55:42;21.43;;;12.70;;
9508;SDS011;4792;50.088;8.122;2023-04-08T00:58:10;21.37;;;12.67;;
9508;SDS011;4792;50.088;8.122;2023-04-08T01:00:39;21.60;;;13.80;;
9508;SDS011;4792;50.088;8.122;2023-04-08T01:03:13;19.10;;;12.00;;
9508;SDS011;4792;50.088;8.122;2023-04-08T01:05:44;20.20;;;12.77;;
9508;SDS011;4792;50.088;8.122;2023-04-08T01:08:18;22.07;;;14.47;;
9508;SDS011;4792;50.088;8.122;2023-04-08T01:10:46;21.97;;;13.87;;
9508;SDS011;4792;50.088;8.122;2023-04-08T01:13:16;25.63;;;14.93;;
9508;SDS011;4792;50.088;8.122;2023-04-08T01:15:44;25.23;;;15.53;;
9508;SDS011;4792;50.088;8.122;2023-04-08T01:18:14;20.20;;;13.53;;
9508;SDS011;4792;50.088;8.122;2023-04-08T01:20:42;23.57;;;14.97;;
9508;SDS011;4792;50.088;8.122;2023-04-08T01:23:12;22.23;;;14.23;;
9508;SDS011;4792;50.088;8.122;2023-04-08T01:25:45;21.20;;;13.53;;
9508;SDS011;4792;50.088;8.122;2023-04-08T01:28:14;22.87;;;14.00;;
9508;SDS011;4792;50.088;8.122;2023-04-08T01:30:43;22.17;;;13.87;;
9508;SDS011;4792;50.088;8.122;2023-04-08T01:33:12;19.97;;;13.47;;
9508;SDS011;4792;50.088;8.122;2023-04-08T01:35:41;21.00;;;13.70;;
9508;SDS011;4792;50.088;8.122;2023-04-08T01:38:10;21.23;;;13.33;;
9508;SDS011;4792;50.088;8.122;2023-04-08T01:40:41;20.63;;;14.13;;
9508;SDS011;4792;50.088;8.122;2023-04-08T01:43:10;20.50;;;13.00;;
9508;SDS011;4792;50.088;8.122;2023-04-08T01:45:40;19.77;;;13.07;;
9508;SDS011;4792;50.088;8.122;2023-04-08T01:48:09;20.20;;;13.40;;
9508;SDS011;4792;50.088;8.122;2023-04-08T01:50:37;22.40;;;14.07;;
9508;SDS011;4792;50.088;8.122;2023-04-08T01:53:06;22.20;;;14.03;;
9508;SDS011;4792;50.088;8.122;2023-04-08T01:55:35;22.27;;;14.50;;
9508;SDS011;4792;50.088;8.122;2023-04-08T01:58:04;21.30;;;14.53;;
9508;SDS011;4792;50.088;8.122;2023-04-08T02:00:35;23.03;;;15.07;;
9508;SDS011;4792;50.088;8.122;2023-04-08T02:03:03;22.67;;;14.73;;
9508;SDS011;4792;50.088;8.122;2023-04-08T02:05:32;22.27;;;14.97;;
9508;SDS011;4792;50.088;8.122;2023-04-08T02:08:00;23.03;;;14.23;;
9508;SDS011;4792;50.088;8.122;2023-04-08T02:10:28;23.17;;;15.20;;
9508;SDS011;4792;50.088;8.122;2023-04-08T02:12:56;21.83;;;14.67;;
9508;SDS011;4792;50.088;8.122;2023-04-08T02:15:24;27.70;;;14.87;;
9508;SDS011;4792;50.088;8.122;2023-04-08T02:17:54;20.07;;;13.23;;
9508;SDS011;4792;50.088;8.122;2023-04-08T02:20:24;22.17;;;14.63;;
9508;SDS011;4792;50.088;8.122;2023-04-08T02:22:58;24.63;;;15.00;;
9508;SDS011;4792;50.088;8.122;2023-04-08T02:25:30;21.03;;;14.13;;
9508;SDS011;4792;50.088;8.122;2023-04-08T02:28:02;25.83;;;15.43;;
9508;SDS011;4792;50.088;8.122;2023-04-08T02:30:31;23.77;;;15.80;;
9508;SDS011;4792;50.088;8.122;2023-04-08T02:33:00;23.53;;;15.20;;
9508;SDS011;4792;50.088;8.122;2023-04-08T02:35:29;23.90;;;15.73;;
9508;SDS011;4792;50.088;8.122;2023-04-08T02:37:58;26.80;;;15.50;;
9508;SDS011;4792;50.088;8.122;2023-04-08T02:40:26;25.33;;;15.37;;
9508;SDS011;4792;50.088;8.122;2023-04-08T02:42:56;24.63;;;15.43;;
9508;SDS011;4792;50.088;8.122;2023-04-08T02:45:24;27.63;;;16.87;;
9508;SDS011;4792;50.088;8.122;2023-04-08T02:47:54;24.77;;;15.17;;
9508;SDS011;4792;50.088;8.122;2023-04-08T02:50:23;27.23;;;15.27;;
9508;SDS011;4792;50.088;8.122;2023-04-08T02:52:51;25.57;;;15.80;;
9508;SDS011;4792;50.088;8.122;2023-04-08T02:55:19;26.33;;;15.67;;
9508;SDS011;4792;50.088;8.122;2023-04-08T02:57:47;23.83;;;15.20;;
9508;SDS011;4792;50.088;8.122;2023-04-08T03:00:15;26.30;;;16.47;;
9508;SDS011;4792;50.088;8.122;2023-04-08T03:02:43;24.30;;;15.60;;
9508;SDS011;4792;50.088;8.122;2023-04-08T03:05:11;23.80;;;15.43;;
9508;SDS011;4792;50.088;8.122;2023-04-08T03:07:42;24.07;;;15.70;;
9508;SDS011;4792;50.088;8.122;2023-04-08T03:10:10;26.47;;;16.67;;
9508;SDS011;4792;50.088;8.122;2023-04-08T03:12:38;28.17;;;16.20;;
9508;SDS011;4792;50.088;8.122;2023-04-08T03:15:06;27.00;;;17.00;;
9508;SDS011;4792;50.088;8.122;2023-04-08T03:17:34;24.63;;;15.47;;
9508;SDS011;4792;50.088;8.122;2023-04-08T03:20:02;25.33;;;16.50;;
9508;SDS011;4792;50.088;8.122;2023-04-08T03:22:31;26.73;;;16.67;;
9508;SDS011;4792;50.088;8.122;2023-04-08T03:25:00;24.50;;;16.40;;
9508;SDS011;4792;50.088;8.122;2023-04-08T03:27:29;28.63;;;15.90;;
9508;SDS011;4792;50.088;8.122;2023-04-08T03:29:57;26.80;;;16.37;;
9508;SDS011;4792;50.088;8.122;2023-04-08T03:32:25;26.57;;;16.23;;
9508;SDS011;4792;50.088;8.122;2023-04-08T03:34:52;25.77;;;16.13;;
9508;SDS011;4792;50.088;8.122;2023-04-08T03:37:20;26.00;;;16.37;;
9508;SDS011;4792;50.088;8.122;2023-04-08T03:39:48;28.53;;;17.37;;
9508;SDS011;4792;50.088;8.122;2023-04-08T03:42:17;26.10;;;16.83;;
9508;SDS011;4792;50.088;8.122;2023-04-08T03:44:45;28.33;;;18.37;;
9508;SDS011;4792;50.088;8.122;2023-04-08T03:47:13;28.03;;;18.30;;
9508;SDS011;4792;50.088;8.122;2023-04-08T03:49:40;29.20;;;18.03;;
9508;SDS011;4792;50.088;8.122;2023-04-08T03:52:08;28.47;;;18.23;;
9508;SDS011;4792;50.088;8.122;2023-04-08T03:54:36;31.87;;;19.80;;
9508;SDS011;4792;50.088;8.122;2023-04-08T03:57:04;28.83;;;18.27;;
9508;SDS011;4792;50.088;8.122;2023-04-08T03:59:33;29.67;;;19.17;;
9508;SDS011;4792;50.088;8.122;2023-04-08T04:02:01;33.50;;;19.10;;
9508;SDS011;4792;50.088;8.122;2023-04-08T04:04:29;32.80;;;19.40;;
9508;SDS011;4792;50.088;8.122;2023-04-08T04:06:57;33.83;;;19.33;;
9508;SDS011;4792;50.088;8.122;2023-04-08T04:09:25;33.73;;;20.20;;
9508;SDS011;4792;50.088;8.122;2023-04-08T04:11:53;31.67;;;19.53;;
9508;SDS011;4792;50.088;8.122;2023-04-08T04:14:21;33.10;;;21.00;;
9508;SDS011;4792;50.088;8.122;2023-04-08T04:16:50;31.10;;;19.20;;
9508;SDS011;4792;50.088;8.122;2023-04-08T04:19:18;31.10;;;19.50;;
9508;SDS011;4792;50.088;8.122;2023-04-08T04:21:46;35.73;;;20.37;;
9508;SDS011;4792;50.088;8.122;2023-04-08T04:24:13;31.13;;;19.53;;
9508;SDS011;4792;50.088;8.122;2023-04-08T04:26:41;31.50;;;19.20;;
9508;SDS011;4792;50.088;8.122;2023-04-08T04:29:09;35.37;;;20.53;;
9508;SDS011;4792;50.088;8.122;2023-04-08T04:31:37;33.20;;;20.70;;
9508;SDS011;4792;50.088;8.122;2023-04-08T04:34:06;35.63;;;20.57;;
9508;SDS011;4792;50.088;8.122;2023-04-08T04:36:34;34.33;;;20.17;;
9508;SDS011;4792;50.088;8.122;2023-04-08T04:39:02;31.93;;;20.30;;
9508;SDS011;4792;50.088;8.122;2023-04-08T04:41:30;34.23;;;18.70;;
9508;SDS011;4792;50.088;8.122;2023-04-08T04:43:57;33.50;;;21.07;;
9508;SDS011;4792;50.088;8.122;2023-04-08T04:46:25;31.30;;;19.60;;
9508;SDS011;4792;50.088;8.122;2023-04-08T04:48:53;31.63;;;19.97;;
9508;SDS011;4792;50.088;8.122;2023-04-08T04:51:23;31.93;;;20.43;;
9508;SDS011;4792;50.088;8.122;2023-04-08T04:53:51;32.67;;;20.53;;
9508;SDS011;4792;50.088;8.122;2023-04-08T04:56:19;31.83;;;21.03;;
9508;SDS011;4792;50.088;8.122;2023-04-08T04:58:47;33.97;;;21.93;;
9508;SDS011;4792;50.088;8.122;2023-04-08T05:01:15;38.80;;;22.50;;
9508;SDS011;4792;50.088;8.122;2023-04-08T05:03:43;34.80;;;20.63;;
9508;SDS011;4792;50.088;8.122;2023-04-08T05:06:11;39.73;;;22.33;;
9508;SDS011;4792;50.088;8.122;2023-04-08T05:08:40;33.40;;;21.67;;
9508;SDS011;4792;50.088;8.122;2023-04-08T05:11:08;36.27;;;22.50;;
9508;SDS011;4792;50.088;8.122;2023-04-08T05:13:36;36.23;;;21.10;;
9508;SDS011;4792;50.088;8.122;2023-04-08T05:16:04;36.83;;;22.53;;
9508;SDS011;4792;50.088;8.122;2023-04-08T05:18:32;35.57;;;22.47;;
9508;SDS011;4792;50.088;8.122;2023-04-08T05:21:00;38.90;;;23.30;;
9508;SDS011;4792;50.088;8.122;2023-04-08T05:23:28;36.10;;;22.37;;
9508;SDS011;4792;50.088;8.122;2023-04-08T05:25:57;38.17;;;22.83;;
9508;SDS011;4792;50.088;8.122;2023-04-08T05:28:25;38.47;;;23.07;;
9508;SDS011;4792;50.088;8.122;2023-04-08T05:30:53;36.57;;;23.97;;
9508;SDS011;4792;50.088;8.122;2023-04-08T05:33:21;39.17;;;23.73;;
9508;SDS011;4792;50.088;8.122;2023-04-08T05:35:49;34.77;;;23.27;;
9508;SDS011;4792;50.088;8.122;2023-04-08T05:38:16;37.77;;;22.90;;
9508;SDS011;4792;50.088;8.122;2023-04-08T05:40:44;38.67;;;23.20;;
9508;SDS011;4792;50.088;8.122;2023-04-08T05:43:14;36.27;;;24.20;;
9508;SDS011;4792;50.088;8.122;2023-04-08T05:45:41;35.47;;;22.50;;
9508;SDS011;4792;50.088;8.122;2023-04-08T05:48:09;36.30;;;23.17;;
9508;SDS011;4792;50.088;8.122;2023-04-08T05:50:37;34.73;;;22.10;;
9508;SDS011;4792;50.088;8.122;2023-04-08T05:53:05;34.70;;;23.07;;
9508;SDS011;4792;50.088;8.122;2023-04-08T05:55:33;35.63;;;23.10;;
9508;SDS011;4792;50.088;8.122;2023-04-08T05:58:01;33.00;;;22.47;;
9508;SDS011;4792;50.088;8.122;2023-04-08T06:00:30;32.43;;;21.30;;
9508;SDS011;4792;50.088;8.122;2023-04-08T06:02:57;33.80;;;21.90;;
9508;SDS011;4792;50.088;8.122;2023-04-08T06:05:26;33.63;;;22.50;;
9508;SDS011;4792;50.088;8.122;2023-04-08T06:07:53;34.67;;;21.70;;
9508;SDS011;4792;50.088;8.122;2023-04-08T06:10:21;34.77;;;22.30;;
9508;SDS011;4792;50.088;8.122;2023-04-08T06:12:49;38.00;;;23.13;;
9508;SDS011;4792;50.088;8.122;2023-04-08T06:15:17;116.87;;;66.27;;
9508;SDS011;4792;50.088;8.122;2023-04-08T06:17:47;35.00;;;22.17;;
9508;SDS011;4792;50.088;8.122;2023-04-08T06:20:16;33.80;;;21.63;;
9508;SDS011;4792;50.088;8.122;2023-04-08T06:22:43;33.73;;;21.33;;
9508;SDS011;4792;50.088;8.122;2023-04-08T06:25:11;33.73;;;21.63;;
9508;SDS011;4792;50.088;8.122;2023-04-08T06:27:39;31.10;;;20.60;;
9508;SDS011;4792;50.088;8.122;2023-04-08T06:30:07;30.37;;;20.43;;
9508;SDS011;4792;50.088;8.122;2023-04-08T06:32:36;30.87;;;21.07;;
9508;SDS011;4792;50.088;8.122;2023-04-08T06:35:06;32.13;;;19.67;;
9508;SDS011;4792;50.088;8.122;2023-04-08T06:37:34;28.53;;;19.43;;
9508;SDS011;4792;50.088;8.122;2023-04-08T06:40:04;30.53;;;20.40;;
9508;SDS011;4792;50.088;8.122;2023-04-08T06:42:33;29.47;;;18.53;;
9508;SDS011;4792;50.088;8.122;2023-04-08T06:45:01;27.53;;;18.50;;
9508;SDS011;4792;50.088;8.122;2023-04-08T06:47:29;26.13;;;18.90;;
9508;SDS011;4792;50.088;8.122;2023-04-08T06:49:57;25.47;;;18.07;;
9508;SDS011;4792;50.088;8.122;2023-04-08T06:52:26;26.57;;;18.43;;
9508;SDS011;4792;50.088;8.122;2023-04-08T06:54:53;27.83;;;18.80;;
9508;SDS011;4792;50.088;8.122;2023-04-08T06:57:21;24.90;;;18.43;;
9508;SDS011;4792;50.088;8.122;2023-04-08T06:59:49;28.73;;;19.97;;
9508;SDS011;4792;50.088;8.122;2023-04-08T07:02:18;26.80;;;19.07;;
9508;SDS011;4792;50.088;8.122;2023-04-08T07:04:48;24.70;;;17.90;;
9508;SDS011;4792;50.088;8.122;2023-04-08T07:07:16;27.30;;;17.70;;
9508;SDS011;4792;50.088;8.122;2023-04-08T07:09:45;26.70;;;18.57;;
9508;SDS011;4792;50.088;8.122;2023-04-08T07:12:12;29.60;;;19.00;;
9508;SDS011;4792;50.088;8.122;2023-04-08T07:14:40;24.27;;;17.03;;
9508;SDS011;4792;50.088;8.122;2023-04-08T07:17:08;33.57;;;20.70;;
9508;SDS011;4792;50.088;8.122;2023-04-08T07:19:36;23.87;;;17.13;;
9508;SDS011;4792;50.088;8.122;2023-04-08T07:22:04;25.53;;;17.97;;
9508;SDS011;4792;50.088;8.122;2023-04-08T07:24:32;25.40;;;18.63;;
9508;SDS011;4792;50.088;8.122;2023-04-08T07:27:01;27.07;;;18.13;;
9508;SDS011;4792;50.088;8.122;2023-04-08T07:29:29;25.90;;;17.53;;
9508;SDS011;4792;50.088;8.122;2023-04-08T07:31:57;26.00;;;17.80;;
9508;SDS011;4792;50.088;8.122;2023-04-08T07:34:25;39.83;;;29.50;;
9508;SDS011;4792;50.088;8.122;2023-04-08T07:36:53;28.73;;;19.83;;
9508;SDS011;4792;50.088;8.122;2023-04-08T07:39:20;51.63;;;31.43;;
9508;SDS011;4792;50.088;8.122;2023-04-08T07:41:48;30.17;;;20.27;;
9508;SDS011;4792;50.088;8.122;2023-04-08T07:44:17;45.67;;;27.13;;
9508;SDS011;4792;50.088;8.122;2023-04-08T07:46:45;40.93;;;24.43;;
9508;SDS011;4792;50.088;8.122;2023-04-08T07:49:16;32.27;;;22.13;;
9508;SDS011;4792;50.088;8.122;2023-04-08T07:51:44;32.13;;;20.47;;
9508;SDS011;4792;50.088;8.122;2023-04-08T07:54:12;31.40;;;19.87;;
9508;SDS011;4792;50.088;8.122;2023-04-08T07:56:42;34.73;;;21.27;;
9508;SDS011;4792;50.088;8.122;2023-04-08T07:59:10;34.63;;;20.27;;
9508;SDS011;4792;50.088;8.122;2023-04-08T08:01:40;31.33;;;20.27;;
9508;SDS011;4792;50.088;8.122;2023-04-08T08:04:08;31.60;;;20.60;;
9508;SDS011;4792;50.088;8.122;2023-04-08T08:06:36;31.00;;;20.23;;
9508;SDS011;4792;50.088;8.122;2023-04-08T08:09:03;32.47;;;20.47;;
9508;SDS011;4792;50.088;8.122;2023-04-08T08:11:31;36.33;;;22.73;;
9508;SDS011;4792;50.088;8.122;2023-04-08T08:13:59;31.87;;;21.67;;
9508;SDS011;4792;50.088;8.122;2023-04-08T08:16:27;33.10;;;21.53;;
9508;SDS011;4792;50.088;8.122;2023-04-08T08:18:56;32.20;;;19.80;;
9508;SDS011;4792;50.088;8.122;2023-04-08T08:21:24;31.77;;;21.80;;
9508;SDS011;4792;50.088;8.122;2023-04-08T08:23:53;31.10;;;19.87;;
9508;SDS011;4792;50.088;8.122;2023-04-08T08:26:22;29.20;;;18.57;;
9508;SDS011;4792;50.088;8.122;2023-04-08T08:28:50;26.03;;;17.83;;
9508;SDS011;4792;50.088;8.122;2023-04-08T08:31:17;30.17;;;19.93;;
9508;SDS011;4792;50.088;8.122;2023-04-08T08:33:45;27.90;;;18.57;;
9508;SDS011;4792;50.088;8.122;2023-04-08T08:36:15;27.37;;;18.73;;
9508;SDS011;4792;50.088;8.122;2023-04-08T08:38:43;29.50;;;18.90;;
9508;SDS011;4792;50.088;8.122;2023-04-08T08:41:11;28.13;;;19.00;;
9508;SDS011;4792;50.088;8.122;2023-04-08T08:43:39;26.87;;;18.03;;
9508;SDS011;4792;50.088;8.122;2023-04-08T08:46:07;28.20;;;18.27;;
9508;SDS011;4792;50.088;8.122;2023-04-08T08:48:37;25.30;;;17.60;;
9508;SDS011;4792;50.088;8.122;2023-04-08T08:51:07;29.00;;;18.23;;
9508;SDS011;4792;50.088;8.122;2023-04-08T08:53:37;26.17;;;18.40;;
9508;SDS011;4792;50.088;8.122;2023-04-08T08:56:07;21.90;;;16.03;;
9508;SDS011;4792;50.088;8.122;2023-04-08T08:58:38;22.63;;;16.33;;
9508;SDS011;4792;50.088;8.122;2023-04-08T09:04:06;28.47;;;20.30;;
9508;SDS011;4792;50.088;8.122;2023-04-08T09:06:35;40.77;;;34.93;;
9508;SDS011;4792;50.088;8.122;2023-04-08T09:09:04;24.27;;;17.00;;
9508;SDS011;4792;50.088;8.122;2023-04-08T09:11:36;22.83;;;17.30;;
9508;SDS011;4792;50.088;8.122;2023-04-08T09:14:15;49.43;;;34.30;;
9508;SDS011;4792;50.088;8.122;2023-04-08T09:16:44;22.60;;;16.67;;
9508;SDS011;4792;50.088;8.122;2023-04-08T09:19:12;33.50;;;24.17;;
9508;SDS011;4792;50.088;8.122;2023-04-08T09:21:41;24.80;;;17.20;;
9508;SDS011;4792;50.088;8.122;2023-04-08T09:26:56;20.00;;;16.07;;
9508;SDS011;4792;50.088;8.122;2023-04-08T09:29:24;22.00;;;16.30;;
9508;SDS011;4792;50.088;8.122;2023-04-08T09:31:59;20.53;;;15.50;;
9508;SDS011;4792;50.088;8.122;2023-04-08T09:34:28;20.53;;;15.90;;
9508;SDS011;4792;50.088;8.122;2023-04-08T09:36:57;21.13;;;16.10;;
9508;SDS011;4792;50.088;8.122;2023-04-08T09:39:26;19.43;;;14.57;;
9508;SDS011;4792;50.088;8.122;2023-04-08T09:41:56;21.37;;;15.93;;
9508;SDS011;4792;50.088;8.122;2023-04-08T09:44:26;22.13;;;15.47;;
9508;SDS011;4792;50.088;8.122;2023-04-08T09:46:58;19.33;;;14.43;;
9508;SDS011;4792;50.088;8.122;2023-04-08T09:49:28;21.30;;;14.67;;
9508;SDS011;4792;50.088;8.122;2023-04-08T09:52:03;21.27;;;14.67;;
9508;SDS011;4792;50.088;8.122;2023-04-08T09:54:39;23.87;;;15.00;;
9508;SDS011;4792;50.088;8.122;2023-04-08T09:57:12;18.50;;;15.10;;
9508;SDS011;4792;50.088;8.122;2023-04-08T09:59:44;23.87;;;15.47;;
9508;SDS011;4792;50.088;8.122;2023-04-08T10:02:18;22.33;;;15.80;;
9508;SDS011;4792;50.088;8.122;2023-04-08T10:04:52;26.23;;;15.47;;
9508;SDS011;4792;50.088;8.122;2023-04-08T10:07:21;23.67;;;17.53;;
9508;SDS011;4792;50.088;8.122;2023-04-08T10:09:50;21.03;;;14.97;;
9508;SDS011;4792;50.088;8.122;2023-04-08T10:12:18;20.40;;;15.30;;
9508;SDS011;4792;50.088;8.122;2023-04-08T10:17:47;21.37;;;15.87;;
9508;SDS011;4792;50.088;8.122;2023-04-08T10:23:11;23.47;;;15.23;;
9508;SDS011;4792;50.088;8.122;2023-04-08T10:25:41;19.30;;;14.27;;
9508;SDS011;4792;50.088;8.122;2023-04-08T10:30:59;18.70;;;13.37;;
9508;SDS011;4792;50.088;8.122;2023-04-08T10:33:31;21.87;;;14.33;;
9508;SDS011;4792;50.088;8.122;2023-04-08T10:36:07;16.63;;;13.07;;
9508;SDS011;4792;50.088;8.122;2023-04-08T10:38:36;16.20;;;12.97;;
9508;SDS011;4792;50.088;8.122;2023-04-08T10:41:06;17.80;;;13.33;;
9508;SDS011;4792;50.088;8.122;2023-04-08T10:43:34;15.73;;;12.13;;
9508;SDS011;4792;50.088;8.122;2023-04-08T10:46:02;16.00;;;12.40;;
9508;SDS011;4792;50.088;8.122;2023-04-08T10:48:30;17.23;;;13.00;;
9508;SDS011;4792;50.088;8.122;2023-04-08T10:51:00;17.33;;;12.73;;
9508;SDS011;4792;50.088;8.122;2023-04-08T10:53:33;17.97;;;13.87;;
9508;SDS011;4792;50.088;8.122;2023-04-08T10:56:02;16.87;;;12.80;;
9508;SDS011;4792;50.088;8.122;2023-04-08T10:58:33;17.87;;;13.00;;
9508;SDS011;4792;50.088;8.122;2023-04-08T11:01:02;15.93;;;12.63;;
9508;SDS011;4792;50.088;8.122;2023-04-08T11:03:31;17.30;;;12.67;;
9508;SDS011;4792;50.088;8.122;2023-04-08T11:06:00;15.67;;;12.57;;
9508;SDS011;4792;50.088;8.122;2023-04-08T11:08:28;16.60;;;12.97;;
9508;SDS011;4792;50.088;8.122;2023-04-08T11:10:56;18.07;;;12.20;;
9508;SDS011;4792;50.088;8.122;2023-04-08T11:13:26;17.60;;;12.17;;
9508;SDS011;4792;50.088;8.122;2023-04-08T11:15:55;16.60;;;11.97;;
9508;SDS011;4792;50.088;8.122;2023-04-08T11:18:25;16.07;;;12.20;;
9508;SDS011;4792;50.088;8.122;2023-04-08T11:20:54;17.93;;;13.27;;
9508;SDS011;4792;50.088;8.122;2023-04-08T11:23:25;17.50;;;12.80;;
9508;SDS011;4792;50.088;8.122;2023-04-08T11:25:53;17.17;;;12.33;;
9508;SDS011;4792;50.088;8.122;2023-04-08T11:28:21;15.97;;;11.80;;
9508;SDS011;4792;50.088;8.122;2023-04-08T11:30:49;14.77;;;11.63;;
9508;SDS011;4792;50.088;8.122;2023-04-08T11:33:18;14.63;;;11.80;;
9508;SDS011;4792;50.088;8.122;2023-04-08T11:35:50;15.47;;;11.03;;
9508;SDS011;4792;50.088;8.122;2023-04-08T11:38:20;14.27;;;11.23;;
9508;SDS011;4792;50.088;8.122;2023-04-08T11:40:51;13.80;;;11.07;;
9508;SDS011;4792;50.088;8.122;2023-04-08T11:43:19;12.87;;;10.40;;
9508;SDS011;4792;50.088;8.122;2023-04-08T11:45:47;14.73;;;12.03;;
9508;SDS011;4792;50.088;8.122;2023-04-08T11:48:15;13.43;;;10.70;;
9508;SDS011;4792;50.088;8.122;2023-04-08T11:50:44;11.80;;;10.50;;
9508;SDS011;4792;50.088;8.122;2023-04-08T11:53:15;13.30;;;10.23;;
9508;SDS011;4792;50.088;8.122;2023-04-08T11:55:45;12.07;;;9.77;;
9508;SDS011;4792;50.088;8.122;2023-04-08T11:58:13;14.63;;;9.97;;
9508;SDS011;4792;50.088;8.122;2023-04-08T12:00:41;12.20;;;9.23;;
9508;SDS011;4792;50.088;8.122;2023-04-08T12:03:10;12.20;;;9.47;;
9508;SDS011;4792;50.088;8.122;2023-04-08T12:05:39;14.90;;;10.87;;
9508;SDS011;4792;50.088;8.122;2023-04-08T12:08:09;12.20;;;9.70;;
9508;SDS011;4792;50.088;8.122;2023-04-08T12:10:37;12.17;;;8.33;;
9508;SDS011;4792;50.088;8.122;2023-04-08T12:13:04;20.70;;;13.20;;
9508;SDS011;4792;50.088;8.122;2023-04-08T12:15:32;14.43;;;11.07;;
9508;SDS011;4792;50.088;8.122;2023-04-08T12:18:00;24.13;;;14.73;;
9508;SDS011;4792;50.088;8.122;2023-04-08T12:20:28;15.10;;;12.27;;
9508;SDS011;4792;50.088;8.122;2023-04-08T12:22:56;10.13;;;9.13;;
9508;SDS011;4792;50.088;8.122;2023-04-08T12:25:28;15.47;;;11.23;;
9508;SDS011;4792;50.088;8.122;2023-04-08T12:27:56;10.10;;;9.00;;
9508;SDS011;4792;50.088;8.122;2023-04-08T12:30:24;15.17;;;11.03;;
9508;SDS011;4792;50.088;8.122;2023-04-08T12:32:52;17.50;;;13.10;;
9508;SDS011;4792;50.088;8.122;2023-04-08T12:35:20;10.50;;;8.20;;
9508;SDS011;4792;50.088;8.122;2023-04-08T12:37:48;10.57;;;8.63;;
9508;SDS011;4792;50.088;8.122;2023-04-08T12:40:16;13.60;;;10.47;;
9508;SDS011;4792;50.088;8.122;2023-04-08T12:42:45;10.93;;;9.10;;
9508;SDS011;4792;50.088;8.122;2023-04-08T12:45:13;10.17;;;8.40;;
9508;SDS011;4792;50.088;8.122;2023-04-08T12:47:41;10.13;;;8.37;;
9508;SDS011;4792;50.088;8.122;2023-04-08T12:50:09;11.37;;;8.10;;
9508;SDS011;4792;50.088;8.122;2023-04-08T12:52:37;12.03;;;9.07;;
9508;SDS011;4792;50.088;8.122;2023-04-08T12:55:05;10.40;;;8.70;;
9508;SDS011;4792;50.088;8.122;2023-04-08T12:57:33;12.30;;;8.60;;
9508;SDS011;4792;50.088;8.122;2023-04-08T13:00:03;14.83;;;10.83;;
9508;SDS011;4792;50.088;8.122;2023-04-08T13:02:31;16.23;;;10.60;;
9508;SDS011;4792;50.088;8.122;2023-04-08T13:04:59;13.30;;;8.83;;
9508;SDS011;4792;50.088;8.122;2023-04-08T13:07:27;12.70;;;10.33;;
9508;SDS011;4792;50.088;8.122;2023-04-08T13:09:55;12.90;;;10.27;;
9508;SDS011;4792;50.088;8.122;2023-04-08T13:12:22;11.73;;;9.10;;
9508;SDS011;4792;50.088;8.122;2023-04-08T13:14:50;11.37;;;9.67;;
9508;SDS011;4792;50.088;8.122;2023-04-08T13:17:20;13.33;;;9.07;;
9508;SDS011;4792;50.088;8.122;2023-04-08T13:19:48;11.30;;;8.90;;
9508;SDS011;4792;50.088;8.122;2023-04-08T13:22:16;13.07;;;9.40;;
9508;SDS011;4792;50.088;8.122;2023-04-08T13:24:44;9.63;;;8.63;;
9508;SDS011;4792;50.088;8.122;2023-04-08T13:27:12;12.07;;;9.83;;
9508;SDS011;4792;50.088;8.122;2023-04-08T13:29:39;10.50;;;9.03;;
9508;SDS011;4792;50.088;8.122;2023-04-08T13:32:07;9.67;;;8.67;;
9508;SDS011;4792;50.088;8.122;2023-04-08T13:34:37;10.87;;;9.10;;
9508;SDS011;4792;50.088;8.122;2023-04-08T13:37:04;10.30;;;8.93;;
9508;SDS011;4792;50.088;8.122;2023-04-08T13:39:32;10.97;;;8.50;;
9508;SDS011;4792;50.088;8.122;2023-04-08T13:42:00;9.93;;;8.10;;
9508;SDS011;4792;50.088;8.122;2023-04-08T13:44:28;7.80;;;6.87;;
9508;SDS011;4792;50.088;8.122;2023-04-08T13:46:58;10.40;;;8.03;;
9508;SDS011;4792;50.088;8.122;2023-04-08T13:49:26;8.10;;;7.17;;
9508;SDS011;4792;50.088;8.122;2023-04-08T13:51:55;8.03;;;7.10;;
9508;SDS011;4792;50.088;8.122;2023-04-08T13:54:23;8.10;;;7.00;;
9508;SDS011;4792;50.088;8.122;2023-04-08T13:56:51;11.77;;;7.87;;
9508;SDS011;4792;50.088;8.122;2023-04-08T13:59:18;9.10;;;7.83;;
9508;SDS011;4792;50.088;8.122;2023-04-08T14:01:46;9.37;;;7.90;;
9508;SDS011;4792;50.088;8.122;2023-04-08T14:04:19;9.40;;;7.90;;
9508;SDS011;4792;50.088;8.122;2023-04-08T14:06:47;10.67;;;7.67;;
9508;SDS011;4792;50.088;8.122;2023-04-08T14:09:17;9.13;;;7.77;;
9508;SDS011;4792;50.088;8.122;2023-04-08T14:11:45;10.70;;;8.30;;
9508;SDS011;4792;50.088;8.122;2023-04-08T14:14:13;10.20;;;7.77;;
9508;SDS011;4792;50.088;8.122;2023-04-08T14:16:41;8.97;;;7.17;;
9508;SDS011;4792;50.088;8.122;2023-04-08T14:19:09;8.30;;;7.37;;
9508;SDS011;4792;50.088;8.122;2023-04-08T14:21:37;8.30;;;7.50;;
9508;SDS011;4792;50.088;8.122;2023-04-08T14:24:04;9.70;;;7.50;;
9508;SDS011;4792;50.088;8.122;2023-04-08T14:26:34;8.13;;;7.30;;
9508;SDS011;4792;50.088;8.122;2023-04-08T14:29:02;9.53;;;6.70;;
9508;SDS011;4792;50.088;8.122;2023-04-08T14:31:30;7.53;;;6.73;;
9508;SDS011;4792;50.088;8.122;2023-04-08T14:33:58;10.30;;;6.30;;
9508;SDS011;4792;50.088;8.122;2023-04-08T14:36:26;9.13;;;6.30;;
9508;SDS011;4792;50.088;8.122;2023-04-08T14:38:55;6.90;;;6.20;;
9508;SDS011;4792;50.088;8.122;2023-04-08T14:41:23;8.67;;;6.07;;
9508;SDS011;4792;50.088;8.122;2023-04-08T14:43:53;10.13;;;6.37;;
9508;SDS011;4792;50.088;8.122;2023-04-08T14:46:21;8.50;;;7.33;;
9508;SDS011;4792;50.088;8.122;2023-04-08T14:48:53;8.63;;;6.73;;
9508;SDS011;4792;50.088;8.122;2023-04-08T14:51:21;6.97;;;6.30;;
9508;SDS011;4792;50.088;8.122;2023-04-08T14:53:48;10.07;;;7.00;;
9508;SDS011;4792;50.088;8.122;2023-04-08T14:56:16;7.10;;;6.40;;
9508;SDS011;4792;50.088;8.122;2023-04-08T14:58:44;7.10;;;6.03;;
9508;SDS011;4792;50.088;8.122;2023-04-08T15:01:13;7.10;;;6.40;;
9508;SDS011;4792;50.088;8.122;2023-04-08T15:03:41;9.40;;;5.93;;
9508;SDS011;4792;50.088;8.122;2023-04-08T15:06:09;7.23;;;6.40;;
9508;SDS011;4792;50.088;8.122;2023-04-08T15:08:42;6.90;;;6.20;;
9508;SDS011;4792;50.088;8.122;2023-04-08T15:11:11;8.03;;;6.77;;
9508;SDS011;4792;50.088;8.122;2023-04-08T15:13:38;7.83;;;6.87;;